sensor_id;sensor_type;location;lat;lon;timestamp;pressure;altitude;pressure_sealevel;temperature;humidity
38054;BME280;23859;50.672;7.164;2024-02-04T00:00:49;35839.84;;;-140.95;82.97
38054;BME280;23859;50.672;7.164;2024-02-04T00:03:15;35833.81;;;-140.95;83.64
38054;BME280;23859;50.672;7.164;2024-02-04T00:05:41;35847.88;;;-140.95;83.94
38054;BME280;23859;50.672;7.164;2024-02-04T00:08:07;35825.78;;;-140.95;83.84
38054;BME280;23859;50.672;7.164;2024-02-04T00:10:33;35863.94;;;-140.95;83.82
38054;BME280;23859;50.672;7.164;2024-02-04T00:13:00;35880.03;;;-140.95;83.86
38054;BME280;23859;50.672;7.164;2024-02-04T00:15:26;35843.88;;;-140.95;84.05
38054;BME280;23859;50.672;7.164;2024-02-04T00:17:52;35837.84;;;-140.95;83.65
38054;BME280;23859;50.672;7.164;2024-02-04T00:20:18;35865.97;;;-140.95;84.10
38054;BME280;23859;50.672;7.164;2024-02-04T00:22:44;35884.03;;;-140.95;84.31
38054;BME280;23859;50.672;7.164;2024-02-04T00:25:10;35916.19;;;-140.95;84.82
38054;BME280;23859;50.672;7.164;2024-02-04T00:27:37;35900.13;;;-140.95;85.15
38054;BME280;23859;50.672;7.164;2024-02-04T00:30:04;35900.13;;;-140.95;85.64
38054;BME280;23859;50.672;7.164;2024-02-04T00:32:30;35865.97;;;-140.95;85.65
38054;BME280;23859;50.672;7.164;2024-02-04T00:34:56;35884.03;;;-140.95;86.03
38054;BME280;23859;50.672;7.164;2024-02-04T00:37:22;35863.94;;;-140.95;86.72
38054;BME280;23859;50.672;7.164;2024-02-04T00:39:48;35884.03;;;-140.95;86.81
38054;BME280;23859;50.672;7.164;2024-02-04T00:42:14;35928.25;;;-140.95;86.85
38054;BME280;23859;50.672;7.164;2024-02-04T00:44:40;35888.06;;;-140.95;86.96
38054;BME280;23859;50.672;7.164;2024-02-04T00:47:06;35880.03;;;-140.95;87.48
38054;BME280;23859;50.672;7.164;2024-02-04T00:49:33;35908.16;;;-140.95;87.42
38054;BME280;23859;50.672;7.164;2024-02-04T00:51:59;35851.91;;;-140.95;88.04
38054;BME280;23859;50.672;7.164;2024-02-04T00:54:29;35902.13;;;-140.95;88.01
38054;BME280;23859;50.672;7.164;2024-02-04T00:56:55;35886.06;;;-140.95;88.12
38054;BME280;23859;50.672;7.164;2024-02-04T00:59:23;35924.22;;;-140.95;88.23
38054;BME280;23859;50.672;7.164;2024-02-04T01:01:49;35920.22;;;-140.95;88.39
38054;BME280;23859;50.672;7.164;2024-02-04T01:04:15;35918.19;;;-140.95;88.27
38054;BME280;23859;50.672;7.164;2024-02-04T01:06:41;35906.16;;;-140.95;88.07
38054;BME280;23859;50.672;7.164;2024-02-04T01:09:07;35886.06;;;-140.95;88.42
38054;BME280;23859;50.672;7.164;2024-02-04T01:11:33;35930.25;;;-140.95;88.63
38054;BME280;23859;50.672;7.164;2024-02-04T01:13:59;35904.13;;;-140.95;88.70
38054;BME280;23859;50.672;7.164;2024-02-04T01:16:25;35904.13;;;-140.95;88.86
38054;BME280;23859;50.672;7.164;2024-02-04T01:18:52;35900.13;;;-140.95;88.85
38054;BME280;23859;50.672;7.164;2024-02-04T01:21:18;35918.19;;;-140.95;89.00
38054;BME280;23859;50.672;7.164;2024-02-04T01:23:44;35932.28;;;-140.95;88.99
38054;BME280;23859;50.672;7.164;2024-02-04T01:26:10;35914.19;;;-140.95;88.81
38054;BME280;23859;50.672;7.164;2024-02-04T01:28:36;35924.22;;;-140.95;88.94
38054;BME280;23859;50.672;7.164;2024-02-04T01:31:02;35908.16;;;-140.95;89.13
38054;BME280;23859;50.672;7.164;2024-02-04T01:33:28;35878.03;;;-140.95;88.90
38054;BME280;23859;50.672;7.164;2024-02-04T01:35:55;35920.22;;;-140.95;88.83
38054;BME280;23859;50.672;7.164;2024-02-04T01:38:21;35892.09;;;-140.95;88.95
38054;BME280;23859;50.672;7.164;2024-02-04T01:40:47;35916.19;;;-140.95;88.79
38054;BME280;23859;50.672;7.164;2024-02-04T01:43:13;35896.09;;;-140.95;88.88
38054;BME280;23859;50.672;7.164;2024-02-04T01:45:39;35888.06;;;-140.95;88.62
38054;BME280;23859;50.672;7.164;2024-02-04T01:48:05;35888.06;;;-140.95;88.63
38054;BME280;23859;50.672;7.164;2024-02-04T01:50:32;35878.03;;;-140.95;88.69
38054;BME280;23859;50.672;7.164;2024-02-04T01:52:58;35906.16;;;-140.95;88.75
38054;BME280;23859;50.672;7.164;2024-02-04T01:55:24;35900.13;;;-140.95;88.41
38054;BME280;23859;50.672;7.164;2024-02-04T01:57:50;35888.06;;;-140.95;87.95
38054;BME280;23859;50.672;7.164;2024-02-04T02:00:17;35908.16;;;-140.95;87.62
38054;BME280;23859;50.672;7.164;2024-02-04T02:02:46;35898.13;;;-140.95;87.73
38054;BME280;23859;50.672;7.164;2024-02-04T02:05:12;35884.03;;;-140.95;88.15
38054;BME280;23859;50.672;7.164;2024-02-04T02:07:39;35908.16;;;-140.95;88.08
38054;BME280;23859;50.672;7.164;2024-02-04T02:10:06;35920.22;;;-140.95;88.16
38054;BME280;23859;50.672;7.164;2024-02-04T02:12:43;35892.09;;;-140.95;88.21
38054;BME280;23859;50.672;7.164;2024-02-04T02:15:20;35876.00;;;-140.95;88.35
38054;BME280;23859;50.672;7.164;2024-02-04T02:18:01;35849.88;;;-140.95;88.33
38054;BME280;23859;50.672;7.164;2024-02-04T02:20:38;35892.09;;;-140.95;87.40
38054;BME280;23859;50.672;7.164;2024-02-04T02:23:12;35884.03;;;-140.95;87.68
38054;BME280;23859;50.672;7.164;2024-02-04T02:25:40;35918.19;;;-140.95;87.06
38054;BME280;23859;50.672;7.164;2024-02-04T02:28:07;35859.94;;;-140.95;86.91
38054;BME280;23859;50.672;7.164;2024-02-04T02:30:33;35872.00;;;-140.95;86.74
38054;BME280;23859;50.672;7.164;2024-02-04T02:32:59;36181.41;;;-140.95;87.04
38054;BME280;23859;50.672;7.164;2024-02-04T02:35:26;35880.03;;;-140.95;87.37
38054;BME280;23859;50.672;7.164;2024-02-04T02:41:04;35886.06;;;-140.95;87.71
38054;BME280;23859;50.672;7.164;2024-02-04T02:43:34;35878.03;;;-140.95;87.37
38054;BME280;23859;50.672;7.164;2024-02-04T02:46:01;35869.97;;;-140.95;87.43
38054;BME280;23859;50.672;7.164;2024-02-04T02:48:27;35872.00;;;-140.95;86.97
38054;BME280;23859;50.672;7.164;2024-02-04T02:50:54;35908.16;;;-140.95;86.07
38054;BME280;23859;50.672;7.164;2024-02-04T02:53:20;35884.03;;;-140.95;86.68
38054;BME280;23859;50.672;7.164;2024-02-04T02:55:46;35863.94;;;-140.95;86.85
38054;BME280;23859;50.672;7.164;2024-02-04T02:58:13;35855.91;;;-140.95;86.48
38054;BME280;23859;50.672;7.164;2024-02-04T03:00:40;35878.03;;;-140.95;86.00
38054;BME280;23859;50.672;7.164;2024-02-04T03:03:06;35880.03;;;-140.95;85.06
38054;BME280;23859;50.672;7.164;2024-02-04T03:05:32;35884.03;;;-140.95;85.37
38054;BME280;23859;50.672;7.164;2024-02-04T03:07:59;35835.81;;;-140.95;85.39
38054;BME280;23859;50.672;7.164;2024-02-04T03:10:25;35872.00;;;-140.95;84.86
38054;BME280;23859;50.672;7.164;2024-02-04T03:12:51;35831.81;;;-140.95;84.81
38054;BME280;23859;50.672;7.164;2024-02-04T03:15:17;35843.88;;;-140.95;84.12
38054;BME280;23859;50.672;7.164;2024-02-04T03:17:43;35835.81;;;-140.95;84.76
38054;BME280;23859;50.672;7.164;2024-02-04T03:20:10;35843.88;;;-140.95;83.12
38054;BME280;23859;50.672;7.164;2024-02-04T03:22:36;35839.84;;;-140.95;82.73
38054;BME280;23859;50.672;7.164;2024-02-04T03:25:02;36072.91;;;-140.95;83.43
38054;BME280;23859;50.672;7.164;2024-02-04T03:27:28;35823.78;;;-140.95;83.22
38054;BME280;23859;50.672;7.164;2024-02-04T03:29:54;35825.78;;;-140.95;82.16
38054;BME280;23859;50.672;7.164;2024-02-04T03:32:20;35823.78;;;-140.95;82.65
38054;BME280;23859;50.672;7.164;2024-02-04T03:34:46;35807.69;;;-140.95;82.63
38054;BME280;23859;50.672;7.164;2024-02-04T03:37:13;35851.91;;;-140.95;82.75
38054;BME280;23859;50.672;7.164;2024-02-04T03:39:39;35803.69;;;-140.95;83.01
38054;BME280;23859;50.672;7.164;2024-02-04T03:42:05;35819.75;;;-140.95;83.67
38054;BME280;23859;50.672;7.164;2024-02-04T03:44:31;35815.72;;;-140.95;83.35
38054;BME280;23859;50.672;7.164;2024-02-04T03:46:57;35843.88;;;-140.95;83.46
38054;BME280;23859;50.672;7.164;2024-02-04T03:49:23;35815.72;;;-140.95;84.19
38054;BME280;23859;50.672;7.164;2024-02-04T03:51:49;35831.81;;;-140.95;84.26
38054;BME280;23859;50.672;7.164;2024-02-04T03:54:15;35827.78;;;-140.95;84.30
38054;BME280;23859;50.672;7.164;2024-02-04T03:56:42;35813.72;;;-140.95;84.88
38054;BME280;23859;50.672;7.164;2024-02-04T03:59:08;35855.91;;;-140.95;84.94
38054;BME280;23859;50.672;7.164;2024-02-04T04:01:36;35823.78;;;-140.95;85.00
38054;BME280;23859;50.672;7.164;2024-02-04T04:04:03;35833.81;;;-140.95;85.24
38054;BME280;23859;50.672;7.164;2024-02-04T04:06:29;35815.72;;;-140.95;84.92
38054;BME280;23859;50.672;7.164;2024-02-04T04:08:55;35859.94;;;-140.95;84.92
38054;BME280;23859;50.672;7.164;2024-02-04T04:11:24;35839.84;;;-140.95;84.58
38054;BME280;23859;50.672;7.164;2024-02-04T04:13:50;35831.81;;;-140.95;84.52
38054;BME280;23859;50.672;7.164;2024-02-04T04:16:21;35855.91;;;-140.95;85.05
38054;BME280;23859;50.672;7.164;2024-02-04T04:18:48;35839.84;;;-140.95;84.26
38054;BME280;23859;50.672;7.164;2024-02-04T04:21:14;35845.88;;;-140.95;84.12
38054;BME280;23859;50.672;7.164;2024-02-04T04:23:40;35839.84;;;-140.95;84.44
38054;BME280;23859;50.672;7.164;2024-02-04T04:26:06;35825.78;;;-140.95;84.97
38054;BME280;23859;50.672;7.164;2024-02-04T04:28:32;35861.94;;;-140.95;85.26
38054;BME280;23859;50.672;7.164;2024-02-04T04:30:58;35837.84;;;-140.95;85.45
38054;BME280;23859;50.672;7.164;2024-02-04T04:33:24;35837.84;;;-140.95;85.75
38054;BME280;23859;50.672;7.164;2024-02-04T04:35:50;35819.75;;;-140.95;86.13
38054;BME280;23859;50.672;7.164;2024-02-04T04:38:16;35823.78;;;-140.95;86.25
38054;BME280;23859;50.672;7.164;2024-02-04T04:40:42;35849.88;;;-140.95;86.44
38054;BME280;23859;50.672;7.164;2024-02-04T04:43:08;35847.88;;;-140.95;86.58
38054;BME280;23859;50.672;7.164;2024-02-04T04:45:34;35815.72;;;-140.95;86.50
38054;BME280;23859;50.672;7.164;2024-02-04T04:48:00;36101.03;;;-140.95;86.05
38054;BME280;23859;50.672;7.164;2024-02-04T04:50:27;35839.84;;;-140.95;86.30
38054;BME280;23859;50.672;7.164;2024-02-04T04:52:53;35876.00;;;-140.95;86.06
38054;BME280;23859;50.672;7.164;2024-02-04T04:55:19;35849.88;;;-140.95;86.33
38054;BME280;23859;50.672;7.164;2024-02-04T04:57:46;35851.91;;;-140.95;86.19
38054;BME280;23859;50.672;7.164;2024-02-04T05:00:12;35835.81;;;-140.95;86.52
38054;BME280;23859;50.672;7.164;2024-02-04T05:02:40;35869.97;;;-140.95;86.59
38054;BME280;23859;50.672;7.164;2024-02-04T05:05:09;35835.81;;;-140.95;87.06
38054;BME280;23859;50.672;7.164;2024-02-04T05:07:36;35837.84;;;-140.95;87.12
38054;BME280;23859;50.672;7.164;2024-02-04T05:10:02;35837.84;;;-140.95;86.90
38054;BME280;23859;50.672;7.164;2024-02-04T05:12:28;35843.88;;;-140.95;87.23
38054;BME280;23859;50.672;7.164;2024-02-04T05:14:54;35837.84;;;-140.95;87.08
38054;BME280;23859;50.672;7.164;2024-02-04T05:17:20;35851.91;;;-140.95;86.76
38054;BME280;23859;50.672;7.164;2024-02-04T05:19:46;35827.78;;;-140.95;87.12
38054;BME280;23859;50.672;7.164;2024-02-04T05:22:12;35859.94;;;-140.95;86.57
38054;BME280;23859;50.672;7.164;2024-02-04T05:24:38;35815.72;;;-140.95;86.59
38054;BME280;23859;50.672;7.164;2024-02-04T05:27:04;35835.81;;;-140.95;85.94
38054;BME280;23859;50.672;7.164;2024-02-04T05:29:31;35837.84;;;-140.95;86.29
38054;BME280;23859;50.672;7.164;2024-02-04T05:31:57;35863.94;;;-140.95;86.30
38054;BME280;23859;50.672;7.164;2024-02-04T05:34:23;35819.75;;;-140.95;86.36
38054;BME280;23859;50.672;7.164;2024-02-04T05:36:49;35835.81;;;-140.95;86.91
38054;BME280;23859;50.672;7.164;2024-02-04T05:39:16;35835.81;;;-140.95;86.89
38054;BME280;23859;50.672;7.164;2024-02-04T05:41:43;35847.88;;;-140.95;86.81
38054;BME280;23859;50.672;7.164;2024-02-04T05:44:09;35882.03;;;-140.95;87.25
38054;BME280;23859;50.672;7.164;2024-02-04T05:46:36;35817.75;;;-140.95;87.42
38054;BME280;23859;50.672;7.164;2024-02-04T05:49:02;35827.78;;;-140.95;87.30
38054;BME280;23859;50.672;7.164;2024-02-04T05:51:29;35827.78;;;-140.95;87.43
38054;BME280;23859;50.672;7.164;2024-02-04T05:53:55;35821.75;;;-140.95;87.56
38054;BME280;23859;50.672;7.164;2024-02-04T05:56:21;35847.88;;;-140.95;87.31
38054;BME280;23859;50.672;7.164;2024-02-04T05:58:47;35837.84;;;-140.95;87.15
38054;BME280;23859;50.672;7.164;2024-02-04T06:01:15;34389.47;;;-140.95;87.10
38054;BME280;23859;50.672;7.164;2024-02-04T06:03:42;35847.88;;;-140.95;86.76
38054;BME280;23859;50.672;7.164;2024-02-04T06:06:16;35843.88;;;-140.95;86.67
38054;BME280;23859;50.672;7.164;2024-02-04T06:08:43;35821.75;;;-140.95;87.05
38054;BME280;23859;50.672;7.164;2024-02-04T06:11:15;35851.91;;;-140.95;87.48
38054;BME280;23859;50.672;7.164;2024-02-04T06:13:43;35876.00;;;-140.95;87.72
38054;BME280;23859;50.672;7.164;2024-02-04T06:16:10;35861.94;;;-140.95;87.87
38054;BME280;23859;50.672;7.164;2024-02-04T06:18:38;35847.88;;;-140.95;88.02
38054;BME280;23859;50.672;7.164;2024-02-04T06:21:05;35880.03;;;-140.95;88.22
38054;BME280;23859;50.672;7.164;2024-02-04T06:23:31;35859.94;;;-140.95;88.37
38054;BME280;23859;50.672;7.164;2024-02-04T06:25:57;36127.16;;;-140.95;88.21
38054;BME280;23859;50.672;7.164;2024-02-04T06:28:23;35847.88;;;-140.95;88.33
38054;BME280;23859;50.672;7.164;2024-02-04T06:30:49;35872.00;;;-140.95;88.27
38054;BME280;23859;50.672;7.164;2024-02-04T06:33:15;35863.94;;;-140.95;88.24
38054;BME280;23859;50.672;7.164;2024-02-04T06:35:42;35835.81;;;-140.95;87.57
38054;BME280;23859;50.672;7.164;2024-02-04T06:38:08;35839.84;;;-140.95;87.32
38054;BME280;23859;50.672;7.164;2024-02-04T06:40:34;35841.84;;;-140.95;86.62
38054;BME280;23859;50.672;7.164;2024-02-04T06:43:00;35821.75;;;-140.95;85.92
38054;BME280;23859;50.672;7.164;2024-02-04T06:45:26;35855.91;;;-140.95;85.77
38054;BME280;23859;50.672;7.164;2024-02-04T06:47:52;35821.75;;;-140.95;85.98
38054;BME280;23859;50.672;7.164;2024-02-04T06:50:18;35855.91;;;-140.95;86.19
38054;BME280;23859;50.672;7.164;2024-02-04T06:52:45;35888.06;;;-140.95;86.53
38054;BME280;23859;50.672;7.164;2024-02-04T06:55:12;35829.78;;;-140.95;87.00
38054;BME280;23859;50.672;7.164;2024-02-04T06:57:38;34182.59;;;-140.95;86.67
38054;BME280;23859;50.672;7.164;2024-02-04T07:00:06;35823.78;;;-140.95;86.44
38054;BME280;23859;50.672;7.164;2024-02-04T07:02:34;35867.97;;;-140.95;86.59
38054;BME280;23859;50.672;7.164;2024-02-04T07:05:00;35855.91;;;-140.95;86.87
38054;BME280;23859;50.672;7.164;2024-02-04T07:07:26;35867.97;;;-140.95;87.13
38054;BME280;23859;50.672;7.164;2024-02-04T07:09:52;35853.91;;;-140.95;87.27
38054;BME280;23859;50.672;7.164;2024-02-04T07:12:18;35896.09;;;-140.95;87.32
38054;BME280;23859;50.672;7.164;2024-02-04T07:14:45;35855.91;;;-140.95;87.39
38054;BME280;23859;50.672;7.164;2024-02-04T07:17:11;35876.00;;;-140.95;87.37
38054;BME280;23859;50.672;7.164;2024-02-04T07:19:37;35876.00;;;-140.95;87.67
38054;BME280;23859;50.672;7.164;2024-02-04T07:22:04;35886.06;;;-140.95;87.53
38054;BME280;23859;50.672;7.164;2024-02-04T07:24:30;35884.03;;;-140.95;87.65
38054;BME280;23859;50.672;7.164;2024-02-04T07:26:56;35890.06;;;-140.95;87.78
38054;BME280;23859;50.672;7.164;2024-02-04T07:29:22;35908.16;;;-140.95;87.95
38054;BME280;23859;50.672;7.164;2024-02-04T07:31:48;35849.88;;;-140.95;87.95
38054;BME280;23859;50.672;7.164;2024-02-04T07:34:14;35886.06;;;-140.95;87.99
38054;BME280;23859;50.672;7.164;2024-02-04T07:36:40;35882.03;;;-140.95;87.73
38054;BME280;23859;50.672;7.164;2024-02-04T07:39:06;35853.91;;;-140.95;87.11
38054;BME280;23859;50.672;7.164;2024-02-04T07:41:32;36133.19;;;-140.95;87.00
38054;BME280;23859;50.672;7.164;2024-02-04T07:43:58;35880.03;;;-140.95;86.88
38054;BME280;23859;50.672;7.164;2024-02-04T07:46:24;35849.88;;;-140.95;86.79
38054;BME280;23859;50.672;7.164;2024-02-04T07:48:50;35843.88;;;-140.95;86.45
38054;BME280;23859;50.672;7.164;2024-02-04T07:51:16;35835.81;;;-140.95;85.88
38054;BME280;23859;50.672;7.164;2024-02-04T07:53:43;35843.88;;;-140.95;84.97
38054;BME280;23859;50.672;7.164;2024-02-04T07:56:09;35847.88;;;-140.95;83.74
38054;BME280;23859;50.672;7.164;2024-02-04T07:58:36;35849.88;;;-140.95;82.14
38054;BME280;23859;50.672;7.164;2024-02-04T08:01:02;35795.63;;;-140.95;81.77
38054;BME280;23859;50.672;7.164;2024-02-04T08:03:29;35795.63;;;-140.95;81.84
38054;BME280;23859;50.672;7.164;2024-02-04T08:05:55;35815.72;;;-140.95;81.61
38054;BME280;23859;50.672;7.164;2024-02-04T08:08:21;35805.69;;;-140.95;81.91
38054;BME280;23859;50.672;7.164;2024-02-04T08:10:47;35799.66;;;-140.95;82.25
38054;BME280;23859;50.672;7.164;2024-02-04T08:13:13;35783.59;;;-140.95;81.63
38054;BME280;23859;50.672;7.164;2024-02-04T08:15:40;35733.34;;;-140.95;80.92
38054;BME280;23859;50.672;7.164;2024-02-04T08:18:06;35773.53;;;-140.95;80.65
38054;BME280;23859;50.672;7.164;2024-02-04T08:20:32;35793.63;;;-140.95;80.75
38054;BME280;23859;50.672;7.164;2024-02-04T08:22:58;35781.56;;;-140.95;79.86
38054;BME280;23859;50.672;7.164;2024-02-04T08:25:24;35741.41;;;-140.95;79.11
38054;BME280;23859;50.672;7.164;2024-02-04T08:27:50;35763.50;;;-140.95;79.96
38054;BME280;23859;50.672;7.164;2024-02-04T08:30:16;35739.38;;;-140.95;80.03
38054;BME280;23859;50.672;7.164;2024-02-04T08:32:45;35747.41;;;-140.95;79.83
38054;BME280;23859;50.672;7.164;2024-02-04T08:35:11;35751.44;;;-140.95;80.32
38054;BME280;23859;50.672;7.164;2024-02-04T08:37:37;35751.44;;;-140.95;79.22
38054;BME280;23859;50.672;7.164;2024-02-04T08:40:07;35719.28;;;-140.95;79.01
38054;BME280;23859;50.672;7.164;2024-02-04T08:42:33;35703.22;;;-140.95;79.64
38054;BME280;23859;50.672;7.164;2024-02-04T08:44:59;35729.34;;;-140.95;77.99
38054;BME280;23859;50.672;7.164;2024-02-04T08:47:25;35733.34;;;-140.95;76.76
38054;BME280;23859;50.672;7.164;2024-02-04T08:49:51;35679.13;;;-140.95;77.33
38054;BME280;23859;50.672;7.164;2024-02-04T08:52:17;35624.88;;;-140.95;76.79
38054;BME280;23859;50.672;7.164;2024-02-04T08:54:43;35630.91;;;-140.95;77.09
38054;BME280;23859;50.672;7.164;2024-02-04T08:57:09;35600.75;;;-140.95;76.58
38054;BME280;23859;50.672;7.164;2024-02-04T08:59:35;35598.75;;;-140.95;75.71
38054;BME280;23859;50.672;7.164;2024-02-04T09:02:01;35574.63;;;-140.95;74.96
38054;BME280;23859;50.672;7.164;2024-02-04T09:04:27;35582.69;;;-140.95;73.34
38054;BME280;23859;50.672;7.164;2024-02-04T09:06:53;35586.69;;;-140.95;72.99
38054;BME280;23859;50.672;7.164;2024-02-04T09:09:19;35628.88;;;-140.95;72.01
38054;BME280;23859;50.672;7.164;2024-02-04T09:11:45;35606.78;;;-140.95;73.03
38054;BME280;23859;50.672;7.164;2024-02-04T09:14:11;35622.84;;;-140.95;75.06
38054;BME280;23859;50.672;7.164;2024-02-04T09:16:38;35586.69;;;-140.95;74.84
38054;BME280;23859;50.672;7.164;2024-02-04T09:19:04;35582.69;;;-140.95;74.50
38054;BME280;23859;50.672;7.164;2024-02-04T09:21:31;35626.88;;;-140.95;74.29
38054;BME280;23859;50.672;7.164;2024-02-04T09:23:57;35570.63;;;-140.95;71.91
38054;BME280;23859;50.672;7.164;2024-02-04T09:26:23;35606.78;;;-140.95;71.11
38054;BME280;23859;50.672;7.164;2024-02-04T09:28:49;35558.56;;;-140.95;72.77
38054;BME280;23859;50.672;7.164;2024-02-04T09:31:15;35590.72;;;-140.95;72.59
38054;BME280;23859;50.672;7.164;2024-02-04T09:33:42;35574.63;;;-140.95;72.14
38054;BME280;23859;50.672;7.164;2024-02-04T09:36:08;35570.63;;;-140.95;71.47
38054;BME280;23859;50.672;7.164;2024-02-04T09:38:34;35608.78;;;-140.95;71.21
38054;BME280;23859;50.672;7.164;2024-02-04T09:41:01;35628.88;;;-140.95;71.90
38054;BME280;23859;50.672;7.164;2024-02-04T09:43:33;35624.88;;;-140.95;72.89
38054;BME280;23859;50.672;7.164;2024-02-04T09:46:01;35657.00;;;-140.95;73.45
38054;BME280;23859;50.672;7.164;2024-02-04T09:48:31;35628.88;;;-140.95;74.88
38054;BME280;23859;50.672;7.164;2024-02-04T09:50:58;35634.91;;;-140.95;74.48
38054;BME280;23859;50.672;7.164;2024-02-04T09:53:35;35655.00;;;-140.95;73.88
38054;BME280;23859;50.672;7.164;2024-02-04T09:56:03;35594.72;;;-140.95;74.74
38054;BME280;23859;50.672;7.164;2024-02-04T09:58:30;35538.47;;;-140.95;73.43
38054;BME280;23859;50.672;7.164;2024-02-04T10:00:56;35552.53;;;-140.95;72.56
38054;BME280;23859;50.672;7.164;2024-02-04T10:03:23;35518.38;;;-140.95;71.69
38054;BME280;23859;50.672;7.164;2024-02-04T10:05:49;35512.34;;;-140.95;72.00
38054;BME280;23859;50.672;7.164;2024-02-04T10:08:15;35494.28;;;-140.95;71.11
38054;BME280;23859;50.672;7.164;2024-02-04T10:10:41;35480.22;;;-140.95;70.49
38054;BME280;23859;50.672;7.164;2024-02-04T10:13:10;35474.19;;;-140.95;69.85
38054;BME280;23859;50.672;7.164;2024-02-04T10:15:36;35542.50;;;-140.95;69.65
38054;BME280;23859;50.672;7.164;2024-02-04T10:18:09;35534.47;;;-140.95;69.45
38054;BME280;23859;50.672;7.164;2024-02-04T10:20:35;35518.38;;;-140.95;69.26
38054;BME280;23859;50.672;7.164;2024-02-04T10:23:01;35498.28;;;-140.95;69.52
38054;BME280;23859;50.672;7.164;2024-02-04T10:25:27;35516.38;;;-140.95;70.30
38054;BME280;23859;50.672;7.164;2024-02-04T10:27:54;35508.34;;;-140.95;70.34
38054;BME280;23859;50.672;7.164;2024-02-04T10:30:20;35474.19;;;-140.95;69.08
38054;BME280;23859;50.672;7.164;2024-02-04T10:32:50;35369.72;;;-140.95;68.30
38054;BME280;23859;50.672;7.164;2024-02-04T10:35:16;35237.13;;;-140.95;64.28
38054;BME280;23859;50.672;7.164;2024-02-04T10:37:45;35122.63;;;-140.95;62.68
38054;BME280;23859;50.672;7.164;2024-02-04T10:40:11;34925.75;;;-140.95;59.03
38054;BME280;23859;50.672;7.164;2024-02-04T10:42:38;34921.75;;;-140.95;56.54
38054;BME280;23859;50.672;7.164;2024-02-04T10:45:08;35000.09;;;-140.95;56.51
38054;BME280;23859;50.672;7.164;2024-02-04T10:47:37;35084.47;;;-140.95;57.41
38054;BME280;23859;50.672;7.164;2024-02-04T10:50:04;35281.31;;;-140.95;60.06
38054;BME280;23859;50.672;7.164;2024-02-04T10:52:38;35293.38;;;-140.95;62.05
38054;BME280;23859;50.672;7.164;2024-02-04T10:55:09;35329.53;;;-140.95;62.73
38054;BME280;23859;50.672;7.164;2024-02-04T10:57:37;35385.78;;;-140.95;64.13
38054;BME280;23859;50.672;7.164;2024-02-04T11:00:04;35381.78;;;-140.95;64.51
38054;BME280;23859;50.672;7.164;2024-02-04T11:02:34;35409.91;;;-140.95;65.30
38054;BME280;23859;50.672;7.164;2024-02-04T11:05:02;35413.91;;;-140.95;65.04
38054;BME280;23859;50.672;7.164;2024-02-04T11:07:32;35415.94;;;-140.95;64.66
38054;BME280;23859;50.672;7.164;2024-02-04T11:10:02;35413.91;;;-140.95;64.54
38054;BME280;23859;50.672;7.164;2024-02-04T11:12:33;35419.94;;;-140.95;64.93
38054;BME280;23859;50.672;7.164;2024-02-04T11:15:05;35373.75;;;-140.95;64.49
38054;BME280;23859;50.672;7.164;2024-02-04T11:26:19;35373.75;;;-140.95;63.84
38054;BME280;23859;50.672;7.164;2024-02-04T11:28:46;35357.66;;;-140.95;63.35
38054;BME280;23859;50.672;7.164;2024-02-04T11:31:18;34313.16;;;-140.95;61.95
38054;BME280;23859;50.672;7.164;2024-02-04T11:33:45;35301.41;;;-140.95;61.62
38054;BME280;23859;50.672;7.164;2024-02-04T11:36:15;35249.19;;;-140.95;59.99
38054;BME280;23859;50.672;7.164;2024-02-04T11:38:44;35353.66;;;-140.95;60.51
38054;BME280;23859;50.672;7.164;2024-02-04T11:41:22;35401.88;;;-140.95;61.51
38054;BME280;23859;50.672;7.164;2024-02-04T11:43:55;35405.88;;;-140.95;61.20
38054;BME280;23859;50.672;7.164;2024-02-04T11:46:22;35381.78;;;-140.95;62.48
38054;BME280;23859;50.672;7.164;2024-02-04T11:48:54;35389.81;;;-140.95;62.49
38054;BME280;23859;50.672;7.164;2024-02-04T11:51:24;35417.94;;;-140.95;63.54
38054;BME280;23859;50.672;7.164;2024-02-04T11:53:51;35415.94;;;-140.95;63.46
38054;BME280;23859;50.672;7.164;2024-02-04T11:56:18;35978.47;;;-140.95;63.72
38054;BME280;23859;50.672;7.164;2024-02-04T11:58:45;35417.94;;;-140.95;64.87
38054;BME280;23859;50.672;7.164;2024-02-04T12:01:12;35397.84;;;-140.95;64.33
38054;BME280;23859;50.672;7.164;2024-02-04T12:03:38;35383.78;;;-140.95;63.50
38054;BME280;23859;50.672;7.164;2024-02-04T12:06:04;35397.84;;;-140.95;63.55
38054;BME280;23859;50.672;7.164;2024-02-04T12:08:32;35876.00;;;-140.95;63.31
38054;BME280;23859;50.672;7.164;2024-02-04T12:11:00;35409.91;;;-140.95;64.11
38054;BME280;23859;50.672;7.164;2024-02-04T12:13:28;35411.91;;;-140.95;64.35
38054;BME280;23859;50.672;7.164;2024-02-04T12:15:54;35466.16;;;-140.95;64.63
38054;BME280;23859;50.672;7.164;2024-02-04T12:18:21;35438.03;;;-140.95;64.72
38054;BME280;23859;50.672;7.164;2024-02-04T12:20:48;35385.78;;;-140.95;64.03
38054;BME280;23859;50.672;7.164;2024-02-04T12:23:17;35403.88;;;-140.95;64.57
38054;BME280;23859;50.672;7.164;2024-02-04T12:25:47;35361.69;;;-140.95;64.07
38054;BME280;23859;50.672;7.164;2024-02-04T12:28:14;35297.41;;;-140.95;62.18
38054;BME280;23859;50.672;7.164;2024-02-04T12:30:40;35265.25;;;-140.95;61.56
38054;BME280;23859;50.672;7.164;2024-02-04T12:33:06;35295.38;;;-140.95;61.45
38054;BME280;23859;50.672;7.164;2024-02-04T12:35:34;35369.72;;;-140.95;63.01
38054;BME280;23859;50.672;7.164;2024-02-04T12:38:01;35369.72;;;-140.95;62.14
38054;BME280;23859;50.672;7.164;2024-02-04T12:40:30;35369.72;;;-140.95;62.69
38054;BME280;23859;50.672;7.164;2024-02-04T12:45:24;35289.38;;;-140.95;62.08
38054;BME280;23859;50.672;7.164;2024-02-04T12:47:52;35305.44;;;-140.95;61.87
38054;BME280;23859;50.672;7.164;2024-02-04T12:50:18;35301.41;;;-140.95;61.79
38054;BME280;23859;50.672;7.164;2024-02-04T12:52:45;35353.66;;;-140.95;62.25